createdAt,value
2022-11-15T00:00:57.500Z,10.30
2022-11-15T00:03:26.454Z,10.30
2022-11-15T00:05:53.850Z,10.20
2022-11-15T00:08:24.200Z,10.20
2022-11-15T00:10:58.204Z,10.20
2022-11-15T00:15:52.458Z,10.30
2022-11-15T00:18:19.642Z,10.40
2022-11-15T00:25:40.442Z,10.40
2022-11-15T00:33:06.449Z,10.60
2022-11-15T00:38:02.139Z,10.70
2022-11-15T00:40:29.372Z,10.70
2022-11-15T00:45:23.650Z,10.80
2022-11-15T00:50:17.478Z,10.90
2022-11-15T00:52:44.613Z,11.00
2022-11-15T00:55:16.228Z,11.00
2022-11-15T01:02:37.604Z,11.00
2022-11-15T01:07:31.464Z,11.00
2022-11-15T01:14:52.358Z,11.10
2022-11-15T01:29:34.747Z,11.20
2022-11-15T01:41:49.776Z,11.20
2022-11-15T01:44:34.933Z,11.20
2022-11-15T01:47:10.226Z,11.30
2022-11-15T01:49:41.271Z,11.30
2022-11-15T01:52:17.307Z,11.30
2022-11-15T01:57:12.893Z,11.30
2022-11-15T01:59:42.924Z,11.30
2022-11-15T02:02:09.951Z,11.40
2022-11-15T02:04:41.666Z,11.30
2022-11-15T02:07:10.844Z,11.40
2022-11-15T02:09:38.682Z,11.40
2022-11-15T02:12:06.879Z,11.30
2022-11-15T02:14:34.110Z,11.30
2022-11-15T02:17:23.082Z,11.30
2022-11-15T02:20:20.768Z,11.30
2022-11-15T02:23:17.818Z,11.30
2022-11-15T02:26:15.586Z,11.40
2022-11-15T02:29:02.414Z,11.40
2022-11-15T02:31:50.349Z,11.40
2022-11-15T02:34:33.484Z,11.40
2022-11-15T02:37:15.269Z,11.40
2022-11-15T02:39:51.898Z,11.50
2022-11-15T02:42:45.491Z,11.50
2022-11-15T02:45:18.554Z,11.50
2022-11-15T02:47:49.143Z,11.40
2022-11-15T02:50:22.084Z,11.50
2022-11-15T02:52:52.337Z,11.50
2022-11-15T02:55:37.004Z,11.50
2022-11-15T02:58:06.442Z,11.50
2022-11-15T03:00:39.514Z,11.60
2022-11-15T03:03:25.421Z,11.60
2022-11-15T03:06:28.397Z,11.60
2022-11-15T03:09:37.898Z,11.60
2022-11-15T03:12:26.216Z,11.70
2022-11-15T03:15:01.249Z,11.70
2022-11-15T03:17:34.725Z,11.70
2022-11-15T03:20:05.227Z,11.80
2022-11-15T03:22:36.969Z,11.80
2022-11-15T03:25:07.801Z,11.80
2022-11-15T03:27:41.469Z,11.80
2022-11-15T03:30:09.934Z,11.90
2022-11-15T03:32:43.019Z,11.90
2022-11-15T03:35:16.976Z,11.90
2022-11-15T03:38:12.485Z,11.90
2022-11-15T03:40:46.580Z,11.90
2022-11-15T03:43:19.920Z,12.00
2022-11-15T03:45:56.121Z,12.00
2022-11-15T03:48:27.459Z,12.00
2022-11-15T03:50:54.797Z,11.90
2022-11-15T03:53:21.673Z,12.10
2022-11-15T03:55:48.330Z,12.10
2022-11-15T04:00:42.136Z,12.10
2022-11-15T04:03:08.989Z,12.10
2022-11-15T04:08:02.752Z,12.10
2022-11-15T04:12:56.415Z,12.00
2022-11-15T04:15:24.782Z,12.10
2022-11-15T04:17:53.915Z,12.10
2022-11-15T04:20:40.726Z,12.10
2022-11-15T04:23:34.673Z,12.10
2022-11-15T04:26:06.252Z,12.10
2022-11-15T04:28:32.904Z,12.10
2022-11-15T04:38:39.471Z,12.10
2022-11-15T04:41:06.153Z,12.10
2022-11-15T04:46:00.439Z,12.10
2022-11-15T04:50:54.165Z,12.10
2022-11-15T04:53:20.858Z,12.10
2022-11-15T04:58:14.873Z,12.20
2022-11-15T05:03:28.884Z,12.10
2022-11-15T05:05:55.708Z,12.20
2022-11-15T05:08:22.472Z,12.10
2022-11-15T05:10:49.082Z,12.10
2022-11-15T05:15:42.824Z,12.00
2022-11-15T05:18:09.539Z,12.00
2022-11-15T05:25:30.512Z,12.10
2022-11-15T05:32:51.766Z,12.00
2022-11-15T05:35:36.603Z,12.00
2022-11-15T05:40:31.281Z,11.90
2022-11-15T05:42:58.665Z,11.90
2022-11-15T05:47:57.659Z,11.80
2022-11-15T05:50:24.483Z,11.70
2022-11-15T05:52:52.176Z,11.60
2022-11-15T05:55:19.241Z,11.50
2022-11-15T06:00:13.802Z,11.40
2022-11-15T06:10:02.163Z,11.30
2022-11-15T06:14:55.908Z,11.10
2022-11-15T06:22:16.674Z,11.00
2022-11-15T06:27:14.630Z,11.00
2022-11-15T06:44:24.966Z,10.90
2022-11-15T06:46:51.611Z,10.80
2022-11-15T06:51:45.358Z,10.80
2022-11-15T06:56:39.274Z,10.80
2022-11-15T06:59:05.894Z,10.80
2022-11-15T07:13:48.046Z,10.80
2022-11-15T07:16:14.742Z,10.80
2022-11-15T07:18:41.830Z,10.80
2022-11-15T07:21:11.023Z,10.80
2022-11-15T07:23:40.829Z,10.80
2022-11-15T07:26:08.648Z,10.80
2022-11-15T07:31:08.586Z,10.80
2022-11-15T07:33:35.844Z,10.80
2022-11-15T07:36:04.330Z,10.80
2022-11-15T07:38:31.537Z,10.80
2022-11-15T07:41:03.758Z,10.80
2022-11-15T07:51:15.637Z,10.90
2022-11-15T07:53:43.820Z,10.90
2022-11-15T07:58:37.824Z,11.00
2022-11-15T08:01:09.892Z,11.00
2022-11-15T08:03:37.508Z,11.00
2022-11-15T08:06:04.419Z,11.10
2022-11-15T08:11:01.415Z,11.10
2022-11-15T08:13:28.861Z,11.20
2022-11-15T08:16:02.996Z,11.20
2022-11-15T08:21:00.735Z,11.30
2022-11-15T08:26:02.013Z,11.30
2022-11-15T08:28:28.826Z,11.40
2022-11-15T08:33:22.857Z,11.50
2022-11-15T08:35:49.613Z,11.60
2022-11-15T08:40:43.741Z,11.70
2022-11-15T08:45:37.661Z,11.70
2022-11-15T08:48:05.104Z,11.70
2022-11-15T08:50:31.817Z,11.90
2022-11-15T08:52:59.094Z,11.80
2022-11-15T08:55:25.805Z,11.90
2022-11-15T08:57:53.536Z,12.00
2022-11-15T09:02:50.608Z,12.10
2022-11-15T09:12:38.878Z,12.40
2022-11-15T09:15:07.219Z,12.50
2022-11-15T09:20:00.946Z,12.60
2022-11-15T09:22:27.765Z,12.70
2022-11-15T09:32:15.681Z,12.80
2022-11-15T09:37:09.499Z,12.90
2022-11-15T09:42:27.104Z,12.90
2022-11-15T09:45:00.743Z,12.90
2022-11-15T09:47:39.176Z,12.90
2022-11-15T09:50:15.137Z,12.90
2022-11-15T09:52:45.612Z,12.90
2022-11-15T09:55:17.229Z,12.90
2022-11-15T09:58:16.717Z,12.90
2022-11-15T10:00:49.532Z,13.00
2022-11-15T10:03:21.453Z,13.00
2022-11-15T10:05:50.689Z,13.00
2022-11-15T10:08:36.786Z,13.00
2022-11-15T10:11:36.043Z,13.10
2022-11-15T10:14:13.210Z,13.10
2022-11-15T10:17:00.826Z,13.20
2022-11-15T10:19:45.687Z,13.20
2022-11-15T10:22:41.515Z,13.20
2022-11-15T10:25:21.162Z,13.30
2022-11-15T10:28:00.136Z,13.40
2022-11-15T10:30:54.158Z,13.40
2022-11-15T10:33:34.697Z,13.40
2022-11-15T10:36:10.258Z,13.50
2022-11-15T10:38:51.953Z,13.50
2022-11-15T10:41:21.684Z,13.50
2022-11-15T10:44:09.559Z,13.50
2022-11-15T10:46:47.008Z,13.50
2022-11-15T10:49:22.650Z,13.60
2022-11-15T10:52:00.010Z,13.60
2022-11-15T10:54:31.305Z,13.60
2022-11-15T10:57:01.855Z,13.60
2022-11-15T10:59:37.638Z,13.60
2022-11-15T11:07:28.697Z,13.70
2022-11-15T11:09:59.954Z,13.60
2022-11-15T11:12:31.212Z,13.60
2022-11-15T11:14:59.226Z,13.60
2022-11-15T11:17:32.614Z,13.70
2022-11-15T11:20:29.462Z,13.70
2022-11-15T11:23:17.210Z,13.70
2022-11-15T11:26:07.110Z,13.70
2022-11-15T11:28:45.947Z,13.70
2022-11-15T11:31:24.472Z,13.70
2022-11-15T11:34:03.197Z,13.70
2022-11-15T11:36:41.981Z,13.70
2022-11-15T11:39:14.652Z,13.70
2022-11-15T11:42:00.231Z,13.70
2022-11-15T11:44:36.800Z,13.70
2022-11-15T11:47:22.385Z,13.80
2022-11-15T11:50:03.213Z,13.80
2022-11-15T11:52:35.565Z,13.90
2022-11-15T11:55:20.973Z,14.00
2022-11-15T11:58:10.920Z,14.00
2022-11-15T12:01:01.068Z,14.00
2022-11-15T12:03:43.036Z,14.10
2022-11-15T12:06:33.816Z,14.20
2022-11-15T12:09:30.291Z,16.90
2022-11-15T12:12:09.918Z,14.20
2022-11-15T12:14:48.459Z,14.20
2022-11-15T12:17:26.290Z,14.30
2022-11-15T12:19:58.540Z,14.40
2022-11-15T12:22:45.599Z,14.40
2022-11-15T12:25:18.012Z,14.40
2022-11-15T12:28:12.870Z,14.40
2022-11-15T12:31:11.632Z,14.50
2022-11-15T12:33:45.221Z,14.50
2022-11-15T12:36:23.893Z,14.60
2022-11-15T12:38:56.180Z,14.70
2022-11-15T12:41:36.821Z,14.80
2022-11-15T12:44:04.739Z,14.70
2022-11-15T12:49:22.523Z,14.80
2022-11-15T12:54:25.037Z,14.70
2022-11-15T12:57:03.681Z,14.70
2022-11-15T12:59:48.845Z,14.70
2022-11-15T13:02:34.548Z,14.60
2022-11-15T13:05:23.457Z,14.60
2022-11-15T13:07:50.162Z,14.60
2022-11-15T13:12:46.827Z,14.60
2022-11-15T13:17:52.267Z,14.70
2022-11-15T13:20:23.130Z,14.70
2022-11-15T13:23:04.989Z,14.70
2022-11-15T13:25:40.477Z,14.80
2022-11-15T13:28:16.212Z,14.80
2022-11-15T13:30:57.121Z,14.70
2022-11-15T13:41:00.291Z,14.70
2022-11-15T13:46:21.020Z,14.70
2022-11-15T13:49:02.139Z,14.80
2022-11-15T13:54:08.933Z,14.70
2022-11-15T13:59:20.746Z,14.70
2022-11-15T14:04:19.288Z,14.60
2022-11-15T14:06:53.009Z,14.60
2022-11-15T14:09:36.295Z,14.60
2022-11-15T14:12:30.850Z,14.60
2022-11-15T14:14:59.362Z,14.60
2022-11-15T14:17:31.890Z,14.60
2022-11-15T14:19:59.061Z,14.50
2022-11-15T14:22:30.691Z,14.50
2022-11-15T14:25:30.511Z,14.50
2022-11-15T14:28:24.182Z,14.40
2022-11-15T14:30:55.900Z,14.40
2022-11-15T14:33:36.718Z,14.40
2022-11-15T14:36:21.329Z,14.30
2022-11-15T14:38:48.706Z,14.30
2022-11-15T14:41:24.244Z,14.20
2022-11-15T14:43:52.345Z,14.20
2022-11-15T14:46:19.365Z,14.20
2022-11-15T14:48:46.476Z,14.20
2022-11-15T14:51:18.533Z,14.10
2022-11-15T14:53:46.494Z,14.10
2022-11-15T15:01:15.120Z,14.10
2022-11-15T15:03:41.872Z,14.10
2022-11-15T15:06:15.060Z,14.00
2022-11-15T15:08:44.434Z,13.90
2022-11-15T15:11:26.934Z,13.80
2022-11-15T15:13:57.279Z,13.80
2022-11-15T15:16:28.217Z,13.70
2022-11-15T15:18:55.316Z,13.70
2022-11-15T15:28:43.669Z,13.60
2022-11-15T15:31:13.190Z,13.70
2022-11-15T15:33:39.906Z,13.60
2022-11-15T15:41:02.879Z,13.50
2022-11-15T15:43:29.744Z,13.50
2022-11-15T15:45:56.407Z,13.50
2022-11-15T15:58:12.117Z,13.40
2022-11-15T16:08:00.899Z,13.20
2022-11-15T16:10:31.183Z,13.20
2022-11-15T16:12:58.838Z,13.20
2022-11-15T16:15:27.845Z,13.30
2022-11-15T16:17:56.935Z,13.30
2022-11-15T16:20:31.533Z,13.40
2022-11-15T16:22:58.695Z,13.40
2022-11-15T16:25:26.168Z,13.50
2022-11-15T16:30:22.021Z,13.50
2022-11-15T16:32:49.027Z,13.50
2022-11-15T16:35:17.125Z,13.60
2022-11-15T16:37:46.471Z,13.60
2022-11-15T16:40:27.176Z,13.60
2022-11-15T16:42:54.015Z,13.50
2022-11-15T16:50:24.728Z,13.60
2022-11-15T16:52:53.204Z,13.60
2022-11-15T16:55:21.199Z,13.60
2022-11-15T17:00:17.202Z,13.60
2022-11-15T17:02:48.469Z,13.60
2022-11-15T17:05:20.519Z,13.60
2022-11-15T17:07:50.399Z,13.70
2022-11-15T17:15:13.364Z,13.70
2022-11-15T17:17:40.913Z,13.60
2022-11-15T17:20:18.507Z,13.60
2022-11-15T17:30:09.910Z,13.60
2022-11-15T17:32:37.472Z,13.60
2022-11-15T17:35:11.950Z,13.60
2022-11-15T17:40:09.328Z,13.60
2022-11-15T17:42:36.100Z,13.60
2022-11-15T17:45:08.179Z,13.50
2022-11-15T17:47:36.785Z,13.50
2022-11-15T17:54:57.797Z,13.40
2022-11-15T17:59:51.571Z,13.20
2022-11-15T18:02:19.383Z,13.20
2022-11-15T18:07:14.015Z,13.10
2022-11-15T18:12:11.632Z,12.90
2022-11-15T18:14:38.461Z,12.80
2022-11-15T18:19:32.250Z,12.80
2022-11-15T18:22:00.792Z,12.70
2022-11-15T18:24:33.437Z,12.70
2022-11-15T18:27:01.766Z,12.60
2022-11-15T18:29:28.993Z,12.60
2022-11-15T18:34:33.978Z,12.50
2022-11-15T18:37:01.301Z,12.40
2022-11-15T18:41:55.108Z,12.30
2022-11-15T18:44:21.859Z,12.30
2022-11-15T18:46:49.501Z,12.30
2022-11-15T18:51:44.073Z,12.20
2022-11-15T18:54:12.868Z,12.20
2022-11-15T18:56:40.579Z,12.10
2022-11-15T18:59:08.644Z,12.10
2022-11-15T19:01:38.403Z,12.10
2022-11-15T19:04:11.178Z,12.00
2022-11-15T19:06:40.493Z,12.00
2022-11-15T19:09:08.561Z,12.00
2022-11-15T19:11:38.736Z,12.00
2022-11-15T19:14:10.666Z,12.00
2022-11-15T19:16:40.034Z,12.00
2022-11-15T19:19:19.092Z,12.00
2022-11-15T19:21:46.372Z,11.90
2022-11-15T19:24:13.445Z,11.90
2022-11-15T19:26:40.989Z,11.90
2022-11-15T19:29:10.469Z,11.90
2022-11-15T19:31:37.532Z,11.80
2022-11-15T19:34:06.075Z,11.90
2022-11-15T19:36:38.471Z,11.90
2022-11-15T19:39:09.692Z,11.90
2022-11-15T19:41:38.483Z,11.80
2022-11-15T19:44:05.827Z,11.80
2022-11-15T19:48:59.926Z,11.80
2022-11-15T19:51:29.302Z,11.80
2022-11-15T19:53:58.568Z,11.80
2022-11-15T19:56:25.342Z,11.80
2022-11-15T19:58:54.114Z,11.80
2022-11-15T20:01:32.293Z,11.80
2022-11-15T20:04:00.056Z,11.80
2022-11-15T20:06:29.531Z,11.80
2022-11-15T20:11:23.962Z,11.80
2022-11-15T20:13:50.660Z,11.80
2022-11-15T20:16:20.247Z,11.80
2022-11-15T20:18:48.217Z,11.80
2022-11-15T20:21:15.352Z,11.70
2022-11-15T20:23:42.891Z,11.80
2022-11-15T20:26:10.564Z,11.80
2022-11-15T20:28:39.178Z,11.80
2022-11-15T20:31:06.921Z,11.80
2022-11-15T20:33:33.610Z,11.80
2022-11-15T20:36:08.064Z,11.80
2022-11-15T20:43:29.615Z,11.80
2022-11-15T20:45:56.344Z,11.80
2022-11-15T20:50:50.215Z,11.70
2022-11-15T20:53:19.045Z,11.80
2022-11-15T20:55:48.392Z,11.80
2022-11-15T20:58:16.487Z,11.80
2022-11-15T21:00:44.858Z,11.70
2022-11-15T21:03:12.892Z,11.80
2022-11-15T21:05:41.227Z,11.70
2022-11-15T21:08:12.498Z,11.80
2022-11-15T21:11:04.221Z,11.70
2022-11-15T21:18:25.544Z,11.70
2022-11-15T21:25:51.610Z,11.70
2022-11-15T21:30:56.442Z,11.70
2022-11-15T21:33:23.881Z,11.70
2022-11-15T21:35:51.542Z,11.60
2022-11-15T21:38:18.322Z,11.60
2022-11-15T21:53:01.276Z,11.60
2022-11-15T21:55:27.917Z,11.70
2022-11-15T21:57:54.584Z,11.60
2022-11-15T22:00:39.912Z,11.60
2022-11-15T22:03:06.554Z,11.60
2022-11-15T22:05:33.320Z,11.50
2022-11-15T22:15:21.330Z,11.50
2022-11-15T22:18:00.261Z,11.60
2022-11-15T22:20:44.043Z,11.50
2022-11-15T22:23:11.739Z,11.60
2022-11-15T22:28:05.650Z,11.60
2022-11-15T22:32:59.519Z,11.60
2022-11-15T22:35:26.237Z,11.50
2022-11-15T22:37:53.023Z,11.60
2022-11-15T22:45:14.126Z,11.60
2022-11-15T22:47:40.820Z,11.60
2022-11-15T22:50:08.185Z,11.60
2022-11-15T22:52:35.292Z,11.60
2022-11-15T22:57:29.165Z,11.50
2022-11-15T23:07:17.323Z,11.60
2022-11-15T23:09:47.761Z,11.50
2022-11-15T23:12:35.959Z,11.50
2022-11-15T23:17:30.704Z,11.50
2022-11-15T23:19:57.579Z,11.50
2022-11-15T23:22:43.041Z,11.60
2022-11-15T23:25:09.769Z,11.50
2022-11-15T23:27:36.475Z,11.50
2022-11-15T23:35:35.680Z,11.50
2022-11-15T23:38:02.427Z,11.50
2022-11-15T23:42:57.927Z,11.50
2022-11-15T23:45:24.665Z,11.50
2022-11-15T23:50:25.245Z,11.50
2022-11-15T23:52:51.936Z,11.50
